Hovedside
METAR-TAF:

METAR-TAF

Lufthavner :

Åbo lufthavn

Åbo, Finland

breddegrad: 60-31N, lengdegrad: 022-16E, høyde over havet: 49 m

Gjeldene værobservasjon

Denne rapporten ble laget for 36 minutter siden, klokken 11:20 UTC
Vind 16 kt fra Vest-nordvest, skiftende mellom Vest og Nord-nordvest
Temperatur 3°C
Luftfuktighet 56%
Trykk 997 hPa
Sikt 10 km eller mer
Spredte skyer i en høyde av 3200 ft

METAR: EFTU 241120Z AUTO 30016KT 270V330 9999 SCT032 03/M05 Q0997

Tid: 13:56 (11:56 UTC)

Varsel

Denne rapporten ble laget for 32 minutter siden, klokken 11:24 UTC
Varsel gyldig fra 24. klokken 12 UTC til 25. klokken 12 UTC
Vind 16 kt fra Vest-nordvest
Sikt 10 km eller mer
Spredte skyer i en høyde av 3000 ft
Midlertidig
fra 24. klokken 12 UTC til 24. klokken 15 UTC
Vind 15 kt fra Nordvest med vindkast opp mot 28 kt
Blir
fra 24. klokken 17 UTC til 24. klokken 19 UTC
Vind 6 kt fra Vest

TAF: EFTU 241124Z 2412/2512 30016KT 9999 SCT030 TEMPO 2412/2415 31015G28KT BECMG 2417/2419 28006KT

Værobservasjoner og værvarsel for over 4000 flyplasser (METAR- og TAF-rapporter).

Tilgjengelige stasjoner er representert av de røde og gule prikkene på kartet.

Hold musepekeren over prikken for å se navnet på stasjonen.

Klikk så for å se værobservasjoner og -varsler.

For å forandre kartet kan du klikke på den grønne knappen med svart kryss for å zoome inn, på den grønne knappen med strek for å zoome ut, eller på de grønne pilene for å se tilstøtende kart.


METAR-TAF: